Time;durP1;ratioP1;P1;durP2;ratioP2;P2;SDS_P1;SDS_P2;PMS_P1;PMS_P2;Temp;Humidity;BMP_temperature;BMP_pressure;BME280_temperature;BME280_humidity;BME280_pressure;Samples;Min_cycle;Max_cycle;Signal;HPM_P1;HPM_P2
2022/03/04 05:06:21;;;;;;;2.70;2.50;;;-3.10;99.90;;;;;;5110122;23;20290;-68
2022/03/04 05:08:48;;;;;;;2.72;2.53;;;-3.20;99.90;;;;;;4996649;28;20222;-67
2022/03/04 05:11:15;;;;;;;3.30;3.10;;;-3.20;99.90;;;;;;4996347;28;20230;-66
2022/03/04 05:13:42;;;;;;;2.78;2.60;;;-3.20;99.90;;;;;;4996249;28;20203;-66
2022/03/04 05:16:09;;;;;;;2.92;2.75;;;-3.20;99.90;;;;;;4995905;28;20254;-66
2022/03/04 05:18:36;;;;;;;2.65;2.45;;;-3.20;99.90;;;;;;4996117;28;20241;-66
2022/03/04 05:21:03;;;;;;;3.72;3.40;;;-3.20;99.90;;;;;;4996101;28;20230;-66
2022/03/04 05:26:15;;;;;;;4.97;3.80;;;-3.20;99.90;;;;;;4996238;28;20601;-65
2022/03/04 05:28:43;;;;;;;3.63;3.33;;;-3.20;99.90;;;;;;4995772;28;20218;-65
2022/03/04 05:31:10;;;;;;;3.90;3.60;;;-3.20;99.90;;;;;;4996248;28;20293;-67
2022/03/04 05:33:37;;;;;;;4.10;3.70;;;-3.20;99.90;;;;;;4996116;28;20298;-67
2022/03/04 05:36:04;;;;;;;3.45;3.25;;;-3.20;99.90;;;;;;4996144;28;20223;-68
2022/03/04 05:38:32;;;;;;;3.85;3.55;;;-3.20;99.90;;;;;;4996210;28;20198;-68
2022/03/04 05:40:59;;;;;;;4.97;3.58;;;-3.30;99.90;;;;;;4996302;28;20242;-68
2022/03/04 05:43:26;;;;;;;3.13;2.88;;;-3.30;99.90;;;;;;4995972;28;20213;-68
2022/03/04 05:45:53;;;;;;;4.47;3.55;;;-3.30;99.90;;;;;;4995754;28;20223;-68
2022/03/04 05:48:20;;;;;;;3.80;3.50;;;-3.30;99.90;;;;;;4995945;28;20309;-68
2022/03/04 05:50:47;;;;;;;4.00;3.70;;;-3.30;99.90;;;;;;4996072;28;20293;-67
2022/03/04 05:53:14;;;;;;;3.63;3.33;;;-3.40;99.90;;;;;;4996824;28;20229;-67
2022/03/04 05:55:42;;;;;;;3.45;3.15;;;-3.40;99.90;;;;;;4995650;28;20229;-67
2022/03/04 05:58:10;;;;;;;3.83;3.53;;;-3.40;99.90;;;;;;4996003;28;20234;-67
2022/03/04 06:00:37;;;;;;;3.47;3.17;;;-3.40;99.90;;;;;;4995365;28;20639;-66
2022/03/04 06:03:04;;;;;;;3.95;3.38;;;-3.40;99.90;;;;;;4995350;28;20209;-67
2022/03/04 06:05:31;;;;;;;3.67;3.38;;;-3.40;99.90;;;;;;4995458;28;20229;-67
2022/03/04 06:07:58;;;;;;;3.22;3.03;;;-3.40;99.90;;;;;;4995404;28;20214;-67
2022/03/04 06:10:25;;;;;;;3.58;3.28;;;-3.40;99.90;;;;;;4995533;28;20309;-65
2022/03/04 06:12:53;;;;;;;3.35;3.13;;;-3.30;99.90;;;;;;4995515;28;20203;-65
2022/03/04 06:15:20;;;;;;;6.15;3.75;;;-3.30;99.90;;;;;;4995297;28;20223;-65
2022/03/04 06:17:48;;;;;;;4.05;3.38;;;-3.20;99.90;;;;;;4995366;28;20207;-65
2022/03/04 06:20:15;;;;;;;3.55;3.30;;;-3.10;99.90;;;;;;4995316;28;20201;-65
2022/03/04 06:22:42;;;;;;;5.32;3.45;;;-3.10;99.90;;;;;;4995261;28;20369;-65
2022/03/04 06:25:10;;;;;;;3.83;3.42;;;-2.90;99.90;;;;;;4995348;28;20309;-66
2022/03/04 06:27:37;;;;;;;4.47;4.07;;;-2.80;99.90;;;;;;4995088;28;20203;-65
2022/03/04 06:30:06;;;;;;;3.85;3.55;;;-2.50;99.90;;;;;;4995054;28;20225;-65
2022/03/04 06:32:33;;;;;;;5.15;4.25;;;-2.10;99.90;;;;;;4995134;28;20570;-67
2022/03/04 06:35:00;;;;;;;5.95;4.38;;;-1.60;99.90;;;;;;4994900;28;20740;-67
2022/03/04 06:37:27;;;;;;;4.82;4.30;;;-0.70;99.90;;;;;;4994972;28;20245;-67
2022/03/04 06:39:54;;;;;;;5.03;4.43;;;0.40;99.90;;;;;;4994885;28;20238;-67
2022/03/04 06:42:20;;;;;;;4.97;3.85;;;1.80;99.90;;;;;;4994949;28;20233;-67
2022/03/04 06:44:47;;;;;;;5.88;4.70;;;3.20;99.70;;;;;;4994775;28;20262;-67
2022/03/04 06:47:15;;;;;;;7.15;4.72;;;4.40;84.50;;;;;;4994944;28;20631;-67
2022/03/04 06:49:42;;;;;;;5.70;5.20;;;5.20;67.60;;;;;;4994693;28;20258;-67
2022/03/04 06:52:09;;;;;;;6.82;5.30;;;5.60;46.70;;;;;;4995097;28;20234;-68
2022/03/04 06:54:37;;;;;;;7.32;5.82;;;5.50;40.50;;;;;;4994801;28;20227;-68
2022/03/04 06:57:04;;;;;;;6.35;4.70;;;5.80;47.30;;;;;;4994103;28;20235;-68
2022/03/04 06:59:31;;;;;;;6.68;5.18;;;6.50;50.40;;;;;;4994924;28;20224;-68
2022/03/04 07:01:58;;;;;;;6.43;4.70;;;7.70;47.00;;;;;;4994765;28;20245;-68
2022/03/04 07:04:26;;;;;;;7.97;5.65;;;9.00;41.50;;;;;;4994266;28;20661;-68
2022/03/04 07:06:53;;;;;;;7.95;5.90;;;10.20;36.50;;;;;;4994495;28;20230;-68
2022/03/04 07:09:20;;;;;;;5.90;5.30;;;11.10;32.10;;;;;;4994585;28;20223;-68
2022/03/04 07:11:47;;;;;;;8.27;6.13;;;11.90;29.60;;;;;;4994482;28;20228;-68
2022/03/04 07:14:14;;;;;;;7.85;6.20;;;12.50;27.70;;;;;;4993880;28;20765;-68
2022/03/04 07:16:41;;;;;;;9.68;7.05;;;13.10;26.00;;;;;;4994211;28;20206;-68
2022/03/04 07:19:09;;;;;;;12.32;8.20;;;13.50;23.70;;;;;;4994407;28;20199;-68
2022/03/04 07:21:37;;;;;;;10.90;7.93;;;13.70;22.40;;;;;;4994440;28;20206;-68
2022/03/04 07:24:04;;;;;;;12.82;8.45;;;13.60;20.90;;;;;;4994460;28;20227;-69
2022/03/04 07:26:31;;;;;;;17.02;9.82;;;13.40;20.90;;;;;;4994306;28;20309;-69
2022/03/04 07:28:58;;;;;;;10.82;8.82;;;13.10;20.10;;;;;;4994144;28;20222;-69
2022/03/04 07:31:25;;;;;;;13.30;9.05;;;12.70;20.80;;;;;;4993902;28;20206;-69
2022/03/04 07:33:52;;;;;;;10.88;8.30;;;12.40;20.70;;;;;;4994211;28;20234;-69
2022/03/04 07:36:19;;;;;;;12.07;8.60;;;11.90;21.10;;;;;;4994150;28;20313;-68
2022/03/04 07:38:47;;;;;;;9.85;7.45;;;11.50;21.60;;;;;;4994294;28;20202;-68
2022/03/04 07:41:14;;;;;;;10.05;7.95;;;11.30;22.30;;;;;;4994032;28;20646;-68
2022/03/04 07:43:41;;;;;;;16.30;9.00;;;11.00;22.10;;;;;;4993922;28;20209;-68
2022/03/04 07:46:08;;;;;;;13.15;8.52;;;10.60;22.60;;;;;;4993770;28;20772;-68
2022/03/04 07:48:35;;;;;;;12.13;8.88;;;10.20;23.00;;;;;;4993990;28;20293;-68
2022/03/04 07:51:02;;;;;;;13.45;10.20;;;10.00;23.50;;;;;;4994106;28;20572;-68
2022/03/04 07:53:28;;;;;;;12.77;8.73;;;9.70;24.50;;;;;;4994083;28;20207;-68
2022/03/04 07:55:57;;;;;;;13.20;8.73;;;9.50;25.10;;;;;;4994060;28;20232;-69
2022/03/04 07:58:23;;;;;;;18.95;11.25;;;9.20;25.70;;;;;;4994070;28;20213;-69
2022/03/04 08:00:50;;;;;;;41.40;22.17;;;9.00;25.30;;;;;;4994061;28;20195;-69
2022/03/04 08:03:17;;;;;;;28.02;15.43;;;8.80;25.50;;;;;;4994055;28;20206;-69
2022/03/04 08:05:44;;;;;;;24.92;14.13;;;8.70;26.10;;;;;;4994124;28;20261;-68
2022/03/04 08:08:11;;;;;;;17.70;12.23;;;8.70;26.20;;;;;;4993826;28;20220;-68
2022/03/04 08:10:38;;;;;;;20.20;12.32;;;8.60;26.50;;;;;;4997827;28;20230;-68
2022/03/04 08:13:06;;;;;;;19.00;11.32;;;8.60;26.80;;;;;;4997943;28;20206;-68
2022/03/04 08:15:33;;;;;;;17.10;10.15;;;8.60;26.20;;;;;;4997818;28;20258;-68
2022/03/04 08:18:00;;;;;;;14.15;9.85;;;8.50;26.20;;;;;;4997868;28;20198;-68
2022/03/04 08:20:27;;;;;;;19.40;12.05;;;8.60;26.40;;;;;;4997800;28;20677;-68
2022/03/04 08:22:54;;;;;;;15.70;10.65;;;8.50;25.90;;;;;;4997441;28;20214;-68
2022/03/04 08:25:23;;;;;;;14.95;9.90;;;8.50;25.70;;;;;;4997636;28;20222;-68
2022/03/04 08:27:52;;;;;;;13.48;9.85;;;8.50;25.60;;;;;;4997763;28;20198;-68
2022/03/04 08:30:21;;;;;;;12.10;8.35;;;8.60;25.70;;;;;;4997249;28;20656;-68
2022/03/04 08:32:48;;;;;;;11.60;8.45;;;8.80;25.00;;;;;;4997969;28;20198;-68
2022/03/04 08:35:14;;;;;;;12.10;8.35;;;8.90;25.20;;;;;;4997409;28;20645;-68
2022/03/04 08:37:41;;;;;;;9.95;8.00;;;9.10;25.20;;;;;;4997145;28;20572;-68
2022/03/04 08:40:10;;;;;;;10.13;7.60;;;9.10;24.50;;;;;;4997394;28;20662;-68
2022/03/04 08:42:37;;;;;;;10.65;7.57;;;9.20;24.40;;;;;;4997136;28;20753;-68
2022/03/04 08:45:04;;;;;;;9.23;7.10;;;9.30;23.50;;;;;;4997290;28;20313;-69
2022/03/04 08:47:33;;;;;;;9.85;7.00;;;9.30;23.00;;;;;;4997337;28;20294;-69
2022/03/04 08:49:59;;;;;;;11.20;7.80;;;9.30;22.60;;;;;;4997255;28;20229;-69
2022/03/04 08:52:26;;;;;;;11.25;7.88;;;9.40;22.30;;;;;;4997268;28;20214;-69
2022/03/04 08:54:53;;;;;;;12.07;8.80;;;9.40;22.00;;;;;;4997151;28;20250;-69
2022/03/04 08:57:20;;;;;;;12.30;8.40;;;9.30;21.50;;;;;;4997216;28;20199;-69
2022/03/04 08:59:47;;;;;;;12.80;8.27;;;9.10;21.60;;;;;;4997101;28;20293;-69
2022/03/04 09:02:14;;;;;;;11.35;7.65;;;9.00;22.10;;;;;;4996826;28;20238;-69
2022/03/04 09:04:42;;;;;;;10.50;7.57;;;9.00;21.60;;;;;;4996666;28;20313;-69
2022/03/04 09:07:09;;;;;;;13.05;8.27;;;9.10;21.90;;;;;;4996532;28;20704;-69
2022/03/04 09:09:36;;;;;;;9.07;7.50;;;9.00;21.60;;;;;;4996533;28;20233;-69
2022/03/04 09:12:03;;;;;;;10.77;7.88;;;9.00;21.60;;;;;;4996982;28;20209;-69
2022/03/04 09:14:30;;;;;;;11.23;7.78;;;9.20;21.70;;;;;;4996849;28;20309;-69
2022/03/04 09:16:57;;;;;;;13.98;8.88;;;9.20;21.40;;;;;;4996823;28;20628;-68
2022/03/04 09:19:24;;;;;;;18.25;10.32;;;9.10;20.50;;;;;;4996725;28;20202;-68
2022/03/04 09:21:52;;;;;;;11.80;8.48;;;8.60;20.50;;;;;;4996068;28;20261;-68
2022/03/04 09:24:19;;;;;;;11.35;8.27;;;8.60;21.40;;;;;;4996353;28;20729;-68
2022/03/04 09:26:46;;;;;;;12.77;8.65;;;8.60;21.30;;;;;;4996540;28;20242;-68
2022/03/04 09:29:13;;;;;;;15.55;8.45;;;8.70;21.40;;;;;;4996495;28;20304;-68
2022/03/04 09:31:40;;;;;;;10.60;7.63;;;8.60;21.10;;;;;;4996369;28;20261;-68
2022/03/04 09:34:07;;;;;;;11.45;7.10;;;8.50;21.30;;;;;;4996169;28;20289;-68
2022/03/04 09:36:34;;;;;;;10.52;6.45;;;8.60;21.20;;;;;;4996304;28;20306;-69
2022/03/04 09:39:02;;;;;;;12.57;8.15;;;8.60;21.40;;;;;;4996355;28;20215;-69
2022/03/04 09:41:30;;;;;;;12.73;8.40;;;8.40;21.30;;;;;;4996304;28;20234;-70
2022/03/04 09:43:57;;;;;;;9.45;7.13;;;8.30;21.20;;;;;;4995949;28;20716;-70
2022/03/04 09:46:25;;;;;;;11.35;7.75;;;8.30;21.80;;;;;;4996167;28;20314;-70
2022/03/04 09:48:53;;;;;;;12.55;7.50;;;8.20;21.20;;;;;;4996196;28;20658;-70
2022/03/04 09:51:20;;;;;;;13.27;8.18;;;8.10;21.30;;;;;;4996065;28;20586;-69
2022/03/04 09:53:50;;;;;;;11.63;8.13;;;7.90;21.60;;;;;;4996014;28;20203;-70
2022/03/04 09:56:19;;;;;;;12.32;7.97;;;7.70;22.10;;;;;;4995769;28;20237;-70
2022/03/04 09:58:46;;;;;;;10.05;7.75;;;7.40;21.70;;;;;;4995780;28;20213;-69
2022/03/04 10:01:14;;;;;;;11.15;7.90;;;7.10;22.20;;;;;;4995956;28;20213;-70
2022/03/04 10:03:45;;;;;;;10.32;7.55;;;6.80;22.30;;;;;;4995928;28;20234;-68
2022/03/04 10:06:13;;;;;;;9.25;6.80;;;6.60;22.80;;;;;;4995474;28;20233;-68
2022/03/04 10:08:41;;;;;;;10.85;7.70;;;6.40;22.70;;;;;;4995492;28;20215;-68
2022/03/04 10:11:08;;;;;;;10.70;7.40;;;6.30;22.60;;;;;;4995382;28;20720;-68
2022/03/04 10:13:44;;;;;;;9.55;6.65;;;6.40;23.00;;;;;;4995717;28;20241;-68
2022/03/04 10:16:12;;;;;;;10.80;7.03;;;6.30;22.20;;;;;;4995745;28;20309;-68
2022/03/04 10:18:39;;;;;;;11.38;7.30;;;6.20;22.00;;;;;;4995658;28;20297;-68
2022/03/04 10:21:06;;;;;;;11.93;7.28;;;6.10;21.90;;;;;;4995765;28;20201;-67
2022/03/04 10:23:33;;;;;;;11.60;7.80;;;6.00;22.80;;;;;;4995499;28;20293;-67
2022/03/04 10:26:01;;;;;;;11.25;6.93;;;6.00;22.20;;;;;;4995380;28;20222;-67
2022/03/04 10:28:30;;;;;;;11.63;6.68;;;6.00;22.00;;;;;;4995467;28;20225;-67
2022/03/04 10:30:59;;;;;;;8.20;6.20;;;6.10;22.10;;;;;;4995270;28;20218;-68
2022/03/04 10:33:27;;;;;;;10.95;7.45;;;6.20;21.90;;;;;;4994160;28;20592;-68
2022/03/04 10:36:09;;;;;;;12.43;6.93;;;6.30;21.00;;;;;;4995100;28;20223;-71
2022/03/04 10:38:37;;;;;;;7.90;5.90;;;6.30;20.90;;;;;;4995102;28;20230;-70
2022/03/04 10:41:23;;;;;;;10.25;7.30;;;6.20;20.70;;;;;;4995179;28;20198;-70
2022/03/04 10:43:51;;;;;;;13.95;7.05;;;6.10;20.80;;;;;;4995198;28;20183;-70
2022/03/04 10:46:19;;;;;;;9.10;6.30;;;6.00;21.00;;;;;;4995004;28;20223;-70
2022/03/04 10:48:54;;;;;;;7.28;5.53;;;6.00;20.70;;;;;;4994957;28;20230;-70
2022/03/04 10:51:36;;;;;;;8.02;5.85;;;5.90;19.90;;;;;;4994921;28;20233;-70
2022/03/04 10:54:14;;;;;;;8.15;5.75;;;5.80;20.80;;;;;;4994891;28;20199;-70
2022/03/04 10:56:52;;;;;;;9.65;6.25;;;5.90;20.40;;;;;;4994951;28;20281;-70
2022/03/04 10:59:19;;;;;;;11.07;6.97;;;6.00;20.90;;;;;;4994523;28;20662;-70
2022/03/04 11:01:49;;;;;;;8.60;6.22;;;6.00;20.20;;;;;;4994792;28;20631;-69
2022/03/04 11:04:18;;;;;;;7.93;5.30;;;5.90;19.80;;;;;;4994750;28;20262;-70
2022/03/04 11:06:46;;;;;;;6.55;4.85;;;5.90;20.20;;;;;;4994205;28;20213;-71
2022/03/04 11:09:14;;;;;;;8.32;5.63;;;6.00;20.30;;;;;;4994708;28;20197;-71
2022/03/04 11:11:43;;;;;;;14.80;8.13;;;6.10;20.40;;;;;;4994618;28;20226;-71
2022/03/04 11:14:11;;;;;;;10.35;7.47;;;6.00;20.30;;;;;;4994581;28;20532;-70
2022/03/04 11:16:39;;;;;;;11.95;6.93;;;5.90;20.00;;;;;;4994294;28;20207;-68
2022/03/04 11:19:08;;;;;;;11.73;7.20;;;5.80;20.90;;;;;;4994576;28;20289;-69
2022/03/04 11:21:36;;;;;;;8.77;6.45;;;5.80;20.80;;;;;;4994499;28;20237;-69
2022/03/04 11:24:03;;;;;;;9.52;6.70;;;5.80;20.30;;;;;;4994220;28;20665;-69
2022/03/04 11:26:32;;;;;;;12.63;6.68;;;5.80;20.10;;;;;;4994588;28;20219;-69
2022/03/04 11:29:01;;;;;;;10.07;6.43;;;5.80;19.90;;;;;;4994743;28;20210;-69
2022/03/04 11:31:30;;;;;;;10.10;6.68;;;5.80;19.90;;;;;;4994291;28;20222;-69
2022/03/04 11:34:00;;;;;;;8.60;6.35;;;5.80;20.70;;;;;;4994784;28;20230;-69
2022/03/04 11:36:32;;;;;;;9.57;6.00;;;5.80;20.80;;;;;;4998107;28;20625;-69
2022/03/04 11:39:01;;;;;;;8.98;6.25;;;5.70;19.60;;;;;;4998963;28;20190;-69
2022/03/04 11:41:47;;;;;;;9.00;5.55;;;5.70;19.90;;;;;;4999260;28;20225;-69
2022/03/04 11:44:17;;;;;;;13.35;6.40;;;5.70;19.60;;;;;;4998014;28;20202;-70
2022/03/04 11:46:48;;;;;;;8.02;5.55;;;5.80;19.70;;;;;;4998398;28;20195;-71
2022/03/04 11:49:44;;;;;;;8.95;5.80;;;5.70;19.10;;;;;;4997701;28;20627;-70
2022/03/04 11:52:25;;;;;;;8.60;5.50;;;5.70;18.40;;;;;;4960019;28;20226;-70
2022/03/04 11:55:12;;;;;;;10.35;5.22;;;5.70;18.90;;;;;;4994045;28;20222;-70
2022/03/04 11:57:40;;;;;;;8.05;5.18;;;5.70;18.90;;;;;;4994156;28;20198;-70
2022/03/04 12:00:25;;;;;;;6.68;5.25;;;5.70;19.00;;;;;;4994126;28;20202;-70
2022/03/04 12:02:54;;;;;;;6.40;5.00;;;5.70;18.40;;;;;;4993833;28;20670;-70
2022/03/04 12:05:45;;;;;;;6.65;4.75;;;5.80;18.70;;;;;;4993928;28;20297;-70
2022/03/04 12:08:14;;;;;;;7.05;4.63;;;5.80;18.90;;;;;;4993872;28;20293;-70
2022/03/04 12:10:53;;;;;;;7.18;5.28;;;6.00;19.20;;;;;;4993832;28;20650;-70
2022/03/04 12:13:25;;;;;;;6.07;4.57;;;6.00;18.80;;;;;;4993912;28;20480;-70
2022/03/04 12:15:56;;;;;;;5.70;3.83;;;6.00;17.70;;;;;;4993843;28;20313;-70
2022/03/04 12:18:37;;;;;;;7.05;4.20;;;5.90;17.00;;;;;;4994008;28;20270;-70
2022/03/04 12:21:13;;;;;;;4.93;3.75;;;5.90;16.80;;;;;;4993678;28;20710;-70
2022/03/04 12:23:50;;;;;;;7.82;5.32;;;5.90;17.00;;;;;;4994036;28;20281;-70
2022/03/04 12:26:23;;;;;;;5.63;4.32;;;5.90;17.20;;;;;;4994114;28;20223;-69
2022/03/04 12:28:52;;;;;;;7.80;4.70;;;6.00;16.80;;;;;;4993929;28;20187;-70
2022/03/04 12:31:21;;;;;;;6.47;4.75;;;5.90;17.20;;;;;;4993455;28;20716;-67
2022/03/04 12:33:52;;;;;;;7.15;4.40;;;5.90;16.90;;;;;;4993449;28;20198;-68
2022/03/04 12:36:19;;;;;;;4.85;4.03;;;5.90;17.30;;;;;;4993799;28;20238;-67
2022/03/04 12:38:49;;;;;;;4.88;4.07;;;6.00;17.90;;;;;;4993755;28;20692;-68
2022/03/04 12:41:18;;;;;;;5.80;4.78;;;6.00;18.30;;;;;;4993763;28;20207;-68
2022/03/04 12:43:46;;;;;;;5.75;5.13;;;6.00;17.90;;;;;;4993794;28;20203;-67
2022/03/04 12:46:14;;;;;;;7.05;5.43;;;6.00;18.20;;;;;;4993292;28;20309;-68
2022/03/04 12:48:41;;;;;;;6.15;5.28;;;6.00;18.10;;;;;;4993678;28;20293;-68
2022/03/04 12:51:29;;;;;;;6.20;3.88;;;6.00;18.10;;;;;;4993610;28;20219;-68
2022/03/04 12:54:00;;;;;;;7.78;5.78;;;6.00;18.10;;;;;;4989487;28;20748;-68
2022/03/04 12:56:27;;;;;;;5.82;5.18;;;6.10;18.00;;;;;;4996249;28;20713;-68
2022/03/04 12:58:55;;;;;;;8.38;5.47;;;6.10;18.00;;;;;;4997967;28;20297;-68
2022/03/04 13:01:23;;;;;;;7.03;5.20;;;6.10;17.90;;;;;;4997407;28;20199;-68
2022/03/04 13:03:52;;;;;;;8.45;5.70;;;6.10;18.40;;;;;;4997200;28;20290;-68
2022/03/04 13:06:20;;;;;;;6.28;4.72;;;6.10;18.40;;;;;;4996941;28;20655;-68
2022/03/04 13:08:55;;;;;;;11.30;5.97;;;6.20;18.80;;;;;;4996872;28;20249;-67
2022/03/04 13:11:26;;;;;;;8.00;5.45;;;6.30;18.40;;;;;;4996985;28;20210;-67
2022/03/04 13:14:02;;;;;;;6.47;4.68;;;6.30;18.70;;;;;;4996705;28;20631;-67
2022/03/04 13:16:31;;;;;;;6.55;4.95;;;6.30;18.70;;;;;;4996803;28;20222;-68
2022/03/04 13:19:00;;;;;;;8.10;6.20;;;6.40;18.70;;;;;;4996794;28;20237;-68
2022/03/04 13:21:39;;;;;;;7.15;5.53;;;6.40;18.50;;;;;;4996655;28;20203;-68
2022/03/04 13:24:16;;;;;;;7.78;5.47;;;6.40;18.80;;;;;;4996530;28;20704;-68
2022/03/04 13:26:49;;;;;;;10.43;6.80;;;6.40;19.10;;;;;;4997335;28;20187;-68
2022/03/04 13:29:17;;;;;;;8.98;6.03;;;6.40;19.20;;;;;;4997643;28;20190;-68
2022/03/04 13:31:44;;;;;;;6.95;5.05;;;6.40;18.80;;;;;;4997614;28;20321;-67
2022/03/04 13:34:13;;;;;;;7.40;4.68;;;6.40;19.10;;;;;;4996709;28;20207;-67
2022/03/04 13:36:49;;;;;;;7.35;5.35;;;6.50;19.20;;;;;;4996445;28;20209;-67
2022/03/04 13:39:21;;;;;;;8.23;5.80;;;6.50;19.30;;;;;;4996409;28;20207;-67
2022/03/04 13:42:06;;;;;;;9.10;6.47;;;6.50;19.20;;;;;;4996399;28;20218;-67
2022/03/04 13:44:33;;;;;;;8.50;5.88;;;6.40;19.60;;;;;;4996297;28;20227;-67
2022/03/04 13:47:06;;;;;;;7.70;6.05;;;6.30;19.40;;;;;;4996551;28;20206;-67
2022/03/04 13:49:50;;;;;;;7.85;5.30;;;6.30;19.40;;;;;;4995968;28;20536;-68
2022/03/04 13:52:18;;;;;;;9.35;5.80;;;6.30;19.70;;;;;;4995756;28;20242;-68
2022/03/04 13:54:53;;;;;;;9.57;6.18;;;6.40;19.60;;;;;;4996014;28;20305;-68
2022/03/04 13:57:41;;;;;;;9.05;5.55;;;6.40;18.90;;;;;;4995742;28;20197;-68
2022/03/04 14:00:11;;;;;;;6.90;4.60;;;6.40;18.20;;;;;;4991335;28;20209;-68
2022/03/04 14:02:43;;;;;;;5.68;4.53;;;6.40;18.10;;;;;;4995793;28;20209;-68
2022/03/04 14:05:12;;;;;;;4.50;4.03;;;6.40;18.20;;;;;;4996289;28;20325;-67
2022/03/04 14:07:43;;;;;;;4.97;3.90;;;6.50;18.50;;;;;;4994684;28;20361;-67
2022/03/04 14:10:12;;;;;;;8.77;5.85;;;6.50;18.60;;;;;;4995812;28;20285;-67
2022/03/04 14:12:39;;;;;;;9.63;5.38;;;6.50;18.60;;;;;;4995316;28;20218;-67
2022/03/04 14:15:09;;;;;;;6.65;5.32;;;6.50;18.00;;;;;;4995695;28;20229;-67
2022/03/04 14:17:49;;;;;;;5.65;4.38;;;6.50;17.90;;;;;;4995471;28;20741;-67
2022/03/04 14:20:17;;;;;;;7.00;4.95;;;6.50;17.90;;;;;;4995893;28;20293;-67
2022/03/04 14:22:44;;;;;;;7.00;4.55;;;6.50;18.10;;;;;;4995855;28;20187;-68
2022/03/04 14:25:11;;;;;;;6.10;4.75;;;6.60;17.70;;;;;;4995668;28;20232;-68
2022/03/04 14:27:42;;;;;;;5.45;4.18;;;6.60;17.20;;;;;;4995217;28;20202;-68
2022/03/04 14:30:12;;;;;;;3.88;3.58;;;6.60;17.50;;;;;;4995798;28;20237;-68
2022/03/04 14:32:39;;;;;;;6.30;5.00;;;6.60;17.40;;;;;;4995122;28;20672;-68
2022/03/04 14:35:07;;;;;;;7.85;5.28;;;6.60;17.40;;;;;;4995238;28;20229;-68
2022/03/04 14:37:34;;;;;;;7.80;5.28;;;6.60;17.20;;;;;;4995222;28;20285;-68
2022/03/04 14:40:01;;;;;;;8.27;4.75;;;6.50;17.00;;;;;;4995146;28;20297;-68
2022/03/04 14:42:28;;;;;;;4.35;3.90;;;6.50;16.20;;;;;;4995193;28;20609;-68
2022/03/04 14:44:55;;;;;;;3.85;3.42;;;6.40;15.10;;;;;;4995134;28;20222;-68
2022/03/04 14:47:24;;;;;;;3.47;3.17;;;6.40;14.50;;;;;;4995061;28;20341;-68
2022/03/04 14:49:51;;;;;;;4.07;3.78;;;6.40;14.80;;;;;;4995027;28;20206;-68
2022/03/04 14:52:17;;;;;;;3.25;3.00;;;6.50;14.80;;;;;;4994600;28;20720;-68
2022/03/04 14:54:45;;;;;;;8.68;4.70;;;6.50;15.00;;;;;;4994932;28;20222;-68
2022/03/04 14:57:13;;;;;;;6.82;4.38;;;6.50;15.20;;;;;;4994628;28;20663;-68
2022/03/04 14:59:40;;;;;;;5.95;4.43;;;6.40;15.30;;;;;;4994914;28;20206;-68
2022/03/04 15:02:07;;;;;;;5.20;3.92;;;6.40;15.40;;;;;;4994533;28;20746;-68
2022/03/04 15:04:36;;;;;;;6.95;3.78;;;6.40;14.80;;;;;;4994648;28;20792;-68
2022/03/04 15:07:05;;;;;;;5.88;4.53;;;6.40;14.90;;;;;;4994781;28;20215;-68
2022/03/04 15:09:32;;;;;;;7.32;4.93;;;6.40;15.20;;;;;;4994851;28;20190;-69
2022/03/04 15:12:00;;;;;;;4.55;4.00;;;6.40;15.30;;;;;;4994548;28;20229;-69
2022/03/04 15:14:26;;;;;;;5.68;4.30;;;6.40;15.60;;;;;;4994884;28;20294;-67
2022/03/04 15:16:53;;;;;;;5.45;4.35;;;6.40;15.60;;;;;;4994404;28;20634;-66
2022/03/04 15:19:20;;;;;;;5.32;4.45;;;6.40;15.40;;;;;;4994251;28;20208;-66
2022/03/04 15:21:49;;;;;;;4.90;4.38;;;6.30;15.40;;;;;;4994654;28;20203;-66
2022/03/04 15:24:15;;;;;;;4.53;3.60;;;6.30;15.50;;;;;;4994476;28;20226;-66
2022/03/04 15:26:42;;;;;;;5.05;3.60;;;6.40;16.00;;;;;;4994391;28;20203;-66
2022/03/04 15:29:09;;;;;;;5.68;4.35;;;6.30;15.20;;;;;;4994492;28;20233;-67
2022/03/04 15:31:36;;;;;;;4.45;4.05;;;6.30;15.40;;;;;;4994558;28;20226;-67
2022/03/04 15:34:03;;;;;;;4.68;4.28;;;6.30;15.50;;;;;;4994655;28;20207;-66
2022/03/04 15:36:30;;;;;;;5.70;4.60;;;6.20;15.70;;;;;;4994206;28;20801;-68
2022/03/04 15:38:58;;;;;;;6.40;4.90;;;6.20;15.90;;;;;;4994296;28;20638;-68
2022/03/04 15:41:25;;;;;;;6.95;5.07;;;6.20;16.20;;;;;;4994474;28;20249;-68
2022/03/04 15:43:52;;;;;;;8.38;5.40;;;6.20;16.40;;;;;;4994218;28;20301;-68
2022/03/04 15:46:20;;;;;;;7.38;5.03;;;6.20;16.30;;;;;;4993936;28;20230;-68
2022/03/04 15:48:49;;;;;;;6.95;4.82;;;6.10;16.40;;;;;;4993962;28;20209;-68
2022/03/04 15:51:16;;;;;;;4.18;3.78;;;6.20;16.60;;;;;;4994292;28;20209;-69
2022/03/04 15:53:43;;;;;;;3.83;3.45;;;6.20;16.70;;;;;;4994179;28;20209;-68
2022/03/04 15:56:11;;;;;;;4.03;3.63;;;6.20;16.80;;;;;;4993857;28;20371;-67
2022/03/04 15:58:38;;;;;;;9.63;5.18;;;6.10;17.00;;;;;;4994023;28;20290;-68
2022/03/04 16:01:06;;;;;;;5.38;4.05;;;6.10;17.00;;;;;;4993718;28;20244;-67
2022/03/04 16:03:33;;;;;;;3.78;3.42;;;6.10;17.30;;;;;;4993654;28;20689;-68
2022/03/04 16:06:00;;;;;;;4.25;3.90;;;6.00;17.30;;;;;;4993884;28;20313;-67
2022/03/04 16:08:27;;;;;;;3.92;3.63;;;6.00;16.90;;;;;;4993751;28;20210;-67
2022/03/04 16:10:54;;;;;;;6.57;4.03;;;6.00;17.20;;;;;;4994195;28;20191;-68
2022/03/04 16:13:22;;;;;;;7.50;5.18;;;6.00;17.40;;;;;;4993952;28;20217;-68
2022/03/04 16:15:49;;;;;;;9.43;5.28;;;5.90;17.20;;;;;;4994022;28;20317;-67
2022/03/04 16:18:16;;;;;;;6.60;4.53;;;5.90;16.90;;;;;;4993685;28;20203;-67
2022/03/04 16:20:44;;;;;;;5.32;4.05;;;5.90;16.90;;;;;;4994058;28;20225;-67
2022/03/04 16:23:11;;;;;;;6.25;5.50;;;5.90;17.40;;;;;;4994005;28;20226;-67
2022/03/04 16:25:39;;;;;;;5.85;4.88;;;5.80;17.40;;;;;;4993912;28;20574;-67
2022/03/04 16:28:06;;;;;;;5.63;4.35;;;5.70;17.20;;;;;;4994062;28;20206;-68
2022/03/04 16:30:34;;;;;;;4.05;3.65;;;5.70;17.60;;;;;;4995396;28;20218;-68
2022/03/04 16:33:01;;;;;;;4.80;3.97;;;5.70;18.10;;;;;;4997539;28;20229;-68
2022/03/04 16:35:28;;;;;;;5.07;4.10;;;5.60;18.30;;;;;;4997557;28;20395;-67
2022/03/04 16:37:55;;;;;;;11.05;5.97;;;5.60;19.60;;;;;;4997122;28;20233;-67
2022/03/04 16:40:21;;;;;;;6.50;4.72;;;5.40;20.10;;;;;;4997351;28;20613;-68
2022/03/04 16:42:48;;;;;;;9.65;5.97;;;5.40;20.80;;;;;;4997463;28;20640;-68
2022/03/04 16:45:15;;;;;;;12.63;7.32;;;5.30;20.90;;;;;;4997335;28;20680;-68
2022/03/04 16:47:43;;;;;;;10.05;6.78;;;5.10;21.10;;;;;;4997493;28;20206;-68
2022/03/04 16:50:11;;;;;;;9.15;5.68;;;5.10;21.40;;;;;;4997384;28;20202;-68
2022/03/04 16:52:38;;;;;;;8.05;5.47;;;5.00;22.10;;;;;;4997278;28;20290;-68
2022/03/04 16:55:06;;;;;;;7.00;4.97;;;4.80;22.20;;;;;;4997287;28;20222;-68
2022/03/04 16:57:33;;;;;;;9.20;5.63;;;4.80;22.10;;;;;;4996935;28;20223;-68
2022/03/04 17:00:00;;;;;;;5.78;4.22;;;4.70;22.40;;;;;;4996719;28;20249;-68
2022/03/04 17:02:27;;;;;;;11.00;6.65;;;4.60;22.70;;;;;;4996799;28;20202;-68
2022/03/04 17:04:55;;;;;;;8.30;5.22;;;4.40;22.70;;;;;;4997357;28;20229;-68
2022/03/04 17:07:22;;;;;;;6.22;4.50;;;4.40;22.90;;;;;;4996742;28;20228;-67
2022/03/04 17:09:49;;;;;;;13.35;6.93;;;4.30;23.40;;;;;;4996987;28;20301;-67
2022/03/04 17:12:16;;;;;;;11.05;6.55;;;4.20;23.20;;;;;;4996788;28;20225;-67
2022/03/04 17:14:44;;;;;;;12.15;6.55;;;4.10;23.60;;;;;;4996765;28;20313;-67
2022/03/04 17:17:11;;;;;;;9.10;5.85;;;4.00;23.70;;;;;;4996635;28;20293;-67
2022/03/04 17:19:40;;;;;;;6.05;4.63;;;4.00;23.80;;;;;;4996641;28;20212;-67
2022/03/04 17:22:10;;;;;;;6.00;4.60;;;3.90;24.10;;;;;;4996997;28;20241;-68
2022/03/04 17:24:37;;;;;;;6.93;4.43;;;3.80;24.20;;;;;;4996377;28;20222;-68
2022/03/04 17:27:05;;;;;;;4.18;3.55;;;3.80;24.50;;;;;;4997039;28;20236;-68
2022/03/04 17:29:32;;;;;;;5.00;3.33;;;3.70;24.90;;;;;;4996675;28;20287;-68
2022/03/04 17:31:58;;;;;;;5.15;3.83;;;3.60;25.30;;;;;;4996370;28;20313;-68
2022/03/04 17:34:25;;;;;;;5.03;3.38;;;3.60;25.80;;;;;;4996244;28;20237;-68
2022/03/04 17:36:52;;;;;;;3.17;2.95;;;3.50;26.30;;;;;;4996326;28;20233;-67
2022/03/04 17:39:20;;;;;;;4.68;3.25;;;3.40;26.50;;;;;;4996047;28;20210;-67
2022/03/04 17:41:49;;;;;;;3.38;3.08;;;3.20;26.80;;;;;;4998200;28;20266;-67
2022/03/04 17:44:16;;;;;;;2.92;2.72;;;3.10;27.10;;;;;;4997655;28;20381;-67
2022/03/04 17:46:44;;;;;;;2.78;2.55;;;3.00;27.30;;;;;;4996773;28;20209;-67
2022/03/04 17:49:11;;;;;;;2.70;2.50;;;2.90;27.70;;;;;;4999365;28;20206;-68
2022/03/04 17:51:38;;;;;;;3.20;2.90;;;2.80;28.00;;;;;;4998471;28;20567;-68
2022/03/04 17:54:06;;;;;;;2.85;2.65;;;2.70;28.30;;;;;;4999794;28;20225;-67
2022/03/04 17:56:35;;;;;;;2.15;2.08;;;2.60;28.70;;;;;;5000368;28;20562;-67
2022/03/04 17:59:02;;;;;;;2.33;2.13;;;2.50;28.80;;;;;;5000329;28;20237;-68
2022/03/04 18:01:29;;;;;;;2.58;2.35;;;2.40;29.10;;;;;;4999795;28;20203;-68
2022/03/04 18:03:57;;;;;;;2.47;2.28;;;2.30;29.30;;;;;;5000268;28;20198;-68
2022/03/04 18:06:24;;;;;;;2.42;2.13;;;2.20;29.40;;;;;;4998294;28;20356;-67
2022/03/04 18:08:52;;;;;;;2.85;2.63;;;2.10;29.60;;;;;;4999614;28;20225;-67